createdAt,value
2018-08-19T00:02:04.112Z,14.23
2018-08-19T00:04:38.267Z,14.19
2018-08-19T00:07:12.322Z,14.12
2018-08-19T00:09:44.918Z,14.08
2018-08-19T00:12:44.497Z,14.01
2018-08-19T00:15:17.096Z,13.94
2018-08-19T00:17:50.628Z,13.90
2018-08-19T00:20:24.880Z,13.86
2018-08-19T00:22:57.513Z,13.83
2018-08-19T00:25:41.425Z,13.79
2018-08-19T00:28:16.459Z,13.85
2018-08-19T00:30:49.281Z,13.78
2018-08-19T00:33:24.165Z,13.72
2018-08-19T00:35:57.353Z,13.67
2018-08-19T00:38:30.188Z,13.65
2018-08-19T00:41:03.217Z,13.63
2018-08-19T00:43:35.600Z,13.62
2018-08-19T00:46:26.420Z,13.57
2018-08-19T00:48:59.816Z,13.55
2018-08-19T00:51:32.250Z,13.53
2018-08-19T00:54:07.328Z,13.51
2018-08-19T00:56:39.921Z,13.52
2018-08-19T00:59:14.373Z,13.52
2018-08-19T01:01:47.714Z,13.49
2018-08-19T01:04:20.421Z,13.46
2018-08-19T01:06:55.625Z,13.43
2018-08-19T01:09:30.949Z,13.47
2018-08-19T01:12:05.349Z,13.38
2018-08-19T01:14:39.301Z,13.32
2018-08-19T01:17:14.037Z,13.31
2018-08-19T01:19:54.996Z,13.34
2018-08-19T01:22:27.760Z,13.30
2018-08-19T01:25:00.906Z,13.36
2018-08-19T01:27:36.449Z,13.39
2018-08-19T01:30:18.477Z,13.30
2018-08-19T01:32:51.904Z,13.25
2018-08-19T01:35:39.028Z,13.26
2018-08-19T01:38:11.860Z,13.22
2018-08-19T01:40:44.393Z,13.19
2018-08-19T01:43:17.203Z,13.15
2018-08-19T01:45:49.752Z,13.14
2018-08-19T01:48:22.844Z,13.09
2018-08-19T01:50:57.011Z,13.07
2018-08-19T01:53:29.521Z,13.06
2018-08-19T01:56:03.398Z,13.04
2018-08-19T01:58:45.093Z,13.08
2018-08-19T02:01:17.701Z,13.10
2018-08-19T02:03:50.920Z,13.09
2018-08-19T02:06:23.639Z,13.04
2018-08-19T02:08:56.025Z,13.00
2018-08-19T02:11:31.657Z,13.04
2018-08-19T02:14:06.276Z,12.97
2018-08-19T02:16:39.148Z,12.97
2018-08-19T02:19:12.191Z,12.91
2018-08-19T02:21:45.678Z,12.85
2018-08-19T02:24:18.516Z,12.80
2018-08-19T02:26:51.753Z,12.75
2018-08-19T02:29:38.105Z,12.78
2018-08-19T02:32:10.878Z,12.77
2018-08-19T02:34:46.108Z,12.81
2018-08-19T02:37:18.681Z,12.74
2018-08-19T02:39:51.339Z,12.65
2018-08-19T02:42:32.001Z,12.61
2018-08-19T02:45:07.533Z,12.63
2018-08-19T02:47:40.463Z,12.62
2018-08-19T02:50:13.705Z,12.64
2018-08-19T02:52:46.233Z,12.58
2018-08-19T02:55:18.991Z,12.48
2018-08-19T02:58:11.514Z,12.43
2018-08-19T03:00:44.236Z,12.39
2018-08-19T03:03:18.596Z,12.38
2018-08-19T03:05:55.995Z,12.47
2018-08-19T03:08:29.780Z,12.46
2018-08-19T03:11:02.333Z,12.46
2018-08-19T03:13:36.175Z,12.45
2018-08-19T03:16:09.049Z,12.53
2018-08-19T03:18:41.704Z,12.56
2018-08-19T03:21:14.900Z,12.55
2018-08-19T03:23:52.788Z,12.62
2018-08-19T03:26:29.767Z,12.68
2018-08-19T03:29:19.307Z,12.65
2018-08-19T03:31:59.309Z,12.59
2018-08-19T03:34:31.876Z,12.64
2018-08-19T03:37:07.720Z,12.57
2018-08-19T03:39:40.733Z,12.69
2018-08-19T03:42:14.794Z,12.69
2018-08-19T03:44:48.307Z,12.72
2018-08-19T03:47:21.176Z,12.72
2018-08-19T03:49:53.644Z,12.65
2018-08-19T03:52:26.153Z,12.62
2018-08-19T03:54:59.097Z,12.65
2018-08-19T03:57:31.633Z,12.81
2018-08-19T04:00:06.394Z,12.92
2018-08-19T04:02:41.294Z,12.97
2018-08-19T04:05:13.910Z,13.06
2018-08-19T04:07:47.852Z,13.13
2018-08-19T04:10:20.897Z,13.10
2018-08-19T04:12:53.423Z,12.95
2018-08-19T04:15:27.009Z,12.86
2018-08-19T04:17:59.782Z,12.83
2018-08-19T04:20:33.191Z,12.82
2018-08-19T04:23:06.181Z,12.83
2018-08-19T04:25:40.000Z,12.87
2018-08-19T04:28:18.729Z,12.91
2018-08-19T04:30:52.154Z,12.96
2018-08-19T04:33:31.973Z,13.05
2018-08-19T04:36:04.548Z,13.16
2018-08-19T04:38:38.351Z,13.18
2018-08-19T04:41:15.864Z,13.28
2018-08-19T04:43:48.593Z,13.49
2018-08-19T04:46:35.354Z,13.67
2018-08-19T04:49:09.511Z,13.77
2018-08-19T04:51:42.285Z,13.92
2018-08-19T04:54:17.804Z,14.10
2018-08-19T04:56:51.353Z,14.19
2018-08-19T04:59:24.617Z,14.27
2018-08-19T05:01:57.816Z,14.29
2018-08-19T05:04:30.164Z,14.17
2018-08-19T05:07:04.802Z,14.18
2018-08-19T05:09:38.818Z,14.29
2018-08-19T05:12:11.649Z,14.40
2018-08-19T05:14:44.294Z,14.53
2018-08-19T05:17:18.352Z,14.66
2018-08-19T05:20:14.781Z,14.83
2018-08-19T05:22:47.230Z,15.00
2018-08-19T05:25:20.336Z,15.10
2018-08-19T05:28:08.688Z,15.16
2018-08-19T05:30:41.337Z,15.20
2018-08-19T05:33:15.215Z,15.25
2018-08-19T05:35:47.744Z,15.33
2018-08-19T05:38:20.577Z,15.49
2018-08-19T05:40:58.814Z,15.56
2018-08-19T05:43:32.252Z,15.63
2018-08-19T05:46:05.825Z,15.74
2018-08-19T05:49:03.685Z,15.86
2018-08-19T05:51:36.401Z,15.95
2018-08-19T05:54:09.391Z,16.01
2018-08-19T05:56:47.552Z,16.09
2018-08-19T05:59:20.102Z,16.18
2018-08-19T06:01:52.684Z,16.25
2018-08-19T06:04:25.402Z,16.31
2018-08-19T06:07:03.580Z,16.37
2018-08-19T06:09:36.849Z,16.41
2018-08-19T06:12:11.376Z,16.48
2018-08-19T06:14:44.753Z,16.56
2018-08-19T06:17:17.620Z,16.65
2018-08-19T06:19:59.802Z,16.69
2018-08-19T06:22:37.827Z,16.76
2018-08-19T06:25:11.516Z,16.82
2018-08-19T06:27:47.567Z,16.86
2018-08-19T06:30:20.180Z,16.90
2018-08-19T06:32:54.324Z,16.92
2018-08-19T06:35:27.242Z,16.96
2018-08-19T06:38:00.680Z,17.00
2018-08-19T06:40:33.320Z,17.04
2018-08-19T06:43:06.785Z,17.06
2018-08-19T06:45:39.293Z,17.09
2018-08-19T06:48:12.177Z,17.11
2018-08-19T06:50:45.904Z,17.14
2018-08-19T06:53:24.727Z,17.17
2018-08-19T06:55:58.260Z,17.23
2018-08-19T06:58:32.824Z,17.31
2018-08-19T07:01:07.672Z,17.36
2018-08-19T07:03:55.583Z,17.45
2018-08-19T07:06:28.810Z,17.54
2018-08-19T07:09:02.119Z,17.59
2018-08-19T07:12:09.423Z,17.62
2018-08-19T07:14:44.224Z,17.69
2018-08-19T07:17:18.122Z,17.78
2018-08-19T07:19:51.028Z,17.83
2018-08-19T07:22:23.574Z,17.88
2018-08-19T07:24:57.036Z,17.96
2018-08-19T07:27:32.276Z,18.05
2018-08-19T07:30:08.070Z,18.21
2018-08-19T07:32:40.905Z,18.60
2018-08-19T07:35:14.764Z,19.21
2018-08-19T07:37:47.436Z,19.92
2018-08-19T07:40:20.029Z,20.55
2018-08-19T07:43:02.061Z,20.88
2018-08-19T07:45:35.370Z,21.17
2018-08-19T07:48:08.316Z,21.30
2018-08-19T07:50:41.962Z,21.41
2018-08-19T07:53:16.005Z,21.57
2018-08-19T07:55:49.572Z,21.76
2018-08-19T07:58:52.044Z,21.97
2018-08-19T08:01:24.720Z,21.96
2018-08-19T08:03:57.371Z,22.42
2018-08-19T08:06:36.819Z,22.61
2018-08-19T08:09:11.600Z,22.54
2018-08-19T08:11:44.950Z,22.63
2018-08-19T08:14:23.384Z,22.75
2018-08-19T08:16:58.298Z,22.78
2018-08-19T08:19:33.029Z,22.86
2018-08-19T08:22:12.678Z,22.90
2018-08-19T08:24:46.004Z,22.71
2018-08-19T08:27:18.626Z,22.69
2018-08-19T08:29:52.450Z,22.48
2018-08-19T08:32:28.288Z,22.18
2018-08-19T08:35:02.440Z,22.30
2018-08-19T08:37:35.621Z,22.28
2018-08-19T08:40:11.750Z,21.91
2018-08-19T08:42:50.149Z,21.78
2018-08-19T08:45:38.508Z,22.23
2018-08-19T08:48:12.710Z,22.83
2018-08-19T08:50:46.482Z,23.67
2018-08-19T08:53:43.533Z,23.54
2018-08-19T08:56:18.399Z,22.82
2018-08-19T08:58:53.740Z,22.67
2018-08-19T09:01:26.560Z,22.52
2018-08-19T09:03:59.356Z,22.54
2018-08-19T09:06:32.463Z,23.08
2018-08-19T09:09:07.580Z,23.46
2018-08-19T09:11:40.804Z,24.09
2018-08-19T09:14:15.194Z,24.31
2018-08-19T09:16:53.532Z,23.88
2018-08-19T09:19:28.185Z,23.84
2018-08-19T09:22:05.049Z,24.15
2018-08-19T09:24:40.780Z,24.21
2018-08-19T09:27:17.131Z,24.06
2018-08-19T09:30:01.585Z,23.98
2018-08-19T09:33:02.520Z,23.98
2018-08-19T09:35:39.476Z,23.83
2018-08-19T09:38:25.344Z,24.11
2018-08-19T09:41:02.992Z,24.17
2018-08-19T09:43:36.300Z,24.28
2018-08-19T09:46:10.134Z,23.84
2018-08-19T09:48:43.521Z,23.51
2018-08-19T09:51:15.973Z,23.21
2018-08-19T09:53:51.080Z,23.23
2018-08-19T09:56:40.008Z,23.69
2018-08-19T09:59:17.421Z,24.28
2018-08-19T10:01:54.356Z,24.67
2018-08-19T10:04:28.301Z,25.19
2018-08-19T10:07:09.834Z,24.81
2018-08-19T10:09:46.613Z,24.20
2018-08-19T10:12:21.099Z,23.93
2018-08-19T10:14:55.729Z,23.38
2018-08-19T10:17:29.445Z,23.27
2018-08-19T10:20:02.193Z,23.81
2018-08-19T10:22:39.462Z,24.06
2018-08-19T10:25:14.167Z,24.32
2018-08-19T10:27:48.453Z,24.74
2018-08-19T10:30:21.754Z,25.26
2018-08-19T10:33:07.154Z,25.44
2018-08-19T10:36:40.004Z,24.67
2018-08-19T10:40:12.822Z,24.19
2018-08-19T10:42:46.193Z,24.39
2018-08-19T10:45:21.810Z,24.48
2018-08-19T10:47:57.922Z,24.40
2018-08-19T10:50:37.665Z,24.49
2018-08-19T10:53:17.317Z,24.74
2018-08-19T10:55:49.904Z,24.96
2018-08-19T10:58:23.044Z,25.30
2018-08-19T11:00:56.507Z,25.16
2018-08-19T11:03:33.605Z,24.84
2018-08-19T11:06:09.720Z,24.88
2018-08-19T11:08:53.805Z,25.16
2018-08-19T11:11:33.711Z,25.48
2018-08-19T11:14:13.366Z,25.60
2018-08-19T11:16:48.520Z,25.79
2018-08-19T11:19:32.499Z,25.88
2018-08-19T11:22:07.385Z,25.75
2018-08-19T11:24:39.816Z,25.79
2018-08-19T11:27:13.531Z,25.87
2018-08-19T11:29:47.121Z,26.02
2018-08-19T11:32:42.901Z,26.25
2018-08-19T11:35:45.120Z,26.73
2018-08-19T11:38:17.856Z,26.66
2018-08-19T11:40:51.817Z,26.52
2018-08-19T11:43:25.316Z,26.57
2018-08-19T11:45:58.829Z,26.40
2018-08-19T11:48:34.223Z,26.14
2018-08-19T11:51:07.660Z,26.23
2018-08-19T11:53:40.193Z,26.37
2018-08-19T11:56:13.212Z,26.61
2018-08-19T11:58:47.775Z,26.54
2018-08-19T12:01:23.675Z,26.16
2018-08-19T12:04:07.957Z,26.31
2018-08-19T12:06:41.459Z,26.45
2018-08-19T12:09:16.493Z,26.53
2018-08-19T12:11:49.897Z,26.21
2018-08-19T12:14:24.641Z,26.23
2018-08-19T12:17:01.970Z,26.30
2018-08-19T12:19:41.532Z,26.30
2018-08-19T12:22:15.978Z,26.56
2018-08-19T12:24:49.103Z,26.96
2018-08-19T12:27:25.495Z,27.12
2018-08-19T12:30:04.904Z,26.77
2018-08-19T12:32:37.602Z,26.65
2018-08-19T12:35:12.154Z,26.69
2018-08-19T12:37:45.859Z,26.74
2018-08-19T12:40:20.839Z,26.84
2018-08-19T12:42:54.089Z,27.22
2018-08-19T12:45:30.730Z,27.16
2018-08-19T12:48:04.989Z,27.10
2018-08-19T12:51:01.722Z,27.42
2018-08-19T12:53:35.786Z,27.45
2018-08-19T12:56:11.561Z,27.33
2018-08-19T12:58:50.721Z,27.44
2018-08-19T13:01:25.761Z,27.74
2018-08-19T13:04:01.617Z,27.99
2018-08-19T13:07:13.717Z,27.71
2018-08-19T13:09:55.556Z,27.60
2018-08-19T13:12:46.048Z,27.79
2018-08-19T13:15:18.861Z,27.98
2018-08-19T13:17:53.241Z,27.75
2018-08-19T13:20:27.426Z,27.78
2018-08-19T13:23:02.239Z,27.83
2018-08-19T13:25:36.572Z,27.96
2018-08-19T13:28:11.455Z,27.88
2018-08-19T13:30:44.283Z,27.71
2018-08-19T13:33:18.402Z,27.80
2018-08-19T13:35:51.611Z,27.99
2018-08-19T13:38:39.084Z,28.28
2018-08-19T13:41:14.225Z,28.17
2018-08-19T13:43:49.964Z,28.02
2018-08-19T13:46:26.042Z,28.00
2018-08-19T13:48:59.590Z,28.16
2018-08-19T13:51:33.500Z,28.40
2018-08-19T13:54:07.489Z,28.35
2018-08-19T13:56:42.764Z,28.66
2018-08-19T13:59:16.098Z,28.94
2018-08-19T14:01:49.144Z,28.60
2018-08-19T14:04:23.599Z,27.99
2018-08-19T14:07:07.992Z,27.89
2018-08-19T14:09:42.439Z,27.91
2018-08-19T14:12:16.481Z,27.94
2018-08-19T14:14:50.306Z,28.30
2018-08-19T14:17:24.922Z,28.52
2018-08-19T14:19:58.007Z,28.83
2018-08-19T14:22:32.714Z,28.80
2018-08-19T14:25:08.991Z,28.72
2018-08-19T14:27:42.594Z,28.65
2018-08-19T14:30:18.617Z,28.93
2018-08-19T14:32:53.548Z,29.02
2018-08-19T14:35:27.460Z,29.07
2018-08-19T14:38:01.340Z,28.95
2018-08-19T14:40:36.224Z,28.74
2018-08-19T14:43:10.296Z,28.64
2018-08-19T14:45:44.594Z,28.64
2018-08-19T14:48:18.240Z,28.70
2018-08-19T14:50:52.348Z,28.72
2018-08-19T14:53:25.114Z,28.78
2018-08-19T14:56:18.048Z,29.06
2018-08-19T14:58:54.725Z,28.89
2018-08-19T15:01:29.294Z,28.71
2018-08-19T15:04:04.762Z,28.78
2018-08-19T15:06:38.153Z,28.80
2018-08-19T15:09:23.066Z,28.73
2018-08-19T15:12:11.027Z,28.86
2018-08-19T15:14:49.338Z,29.00
2018-08-19T15:17:24.869Z,29.02
2018-08-19T15:19:58.373Z,29.06
2018-08-19T15:22:33.368Z,29.05
2018-08-19T15:25:07.529Z,29.05
2018-08-19T15:27:46.341Z,28.82
2018-08-19T15:30:27.247Z,28.90
2018-08-19T15:33:00.808Z,28.92
2018-08-19T15:35:35.207Z,28.86
2018-08-19T15:38:08.614Z,29.08
2018-08-19T15:40:48.681Z,29.40
2018-08-19T15:43:22.427Z,29.46
2018-08-19T15:46:03.451Z,29.44
2018-08-19T15:48:36.669Z,29.38
2018-08-19T15:51:10.642Z,29.18
2018-08-19T15:53:47.272Z,29.25
2018-08-19T15:56:22.608Z,29.28
2018-08-19T15:59:04.285Z,29.35
2018-08-19T16:01:40.869Z,29.65
2018-08-19T16:04:21.804Z,29.67
2018-08-19T16:06:55.413Z,29.55
2018-08-19T16:09:30.565Z,29.51
2018-08-19T16:12:04.252Z,29.53
2018-08-19T16:14:38.968Z,29.50
2018-08-19T16:17:11.525Z,29.48
2018-08-19T16:19:46.166Z,29.50
2018-08-19T16:22:21.843Z,29.59
2018-08-19T16:24:55.334Z,29.51
2018-08-19T16:27:43.938Z,29.21
2018-08-19T16:30:17.007Z,29.03
2018-08-19T16:32:50.476Z,28.91
2018-08-19T16:35:27.335Z,28.72
2018-08-19T16:38:01.733Z,28.78
2018-08-19T16:40:37.264Z,28.69
2018-08-19T16:43:10.095Z,28.75
2018-08-19T16:45:46.965Z,28.92
2018-08-19T16:48:24.338Z,28.90
2018-08-19T16:50:57.620Z,28.60
2018-08-19T16:53:34.643Z,28.48
2018-08-19T16:56:07.295Z,28.45
2018-08-19T16:58:49.383Z,28.59
2018-08-19T17:01:23.536Z,28.52
2018-08-19T17:03:56.556Z,28.39
2018-08-19T17:06:29.480Z,28.30
2018-08-19T17:09:03.996Z,28.17
2018-08-19T17:11:40.300Z,28.11
2018-08-19T17:14:16.807Z,27.92
2018-08-19T17:16:51.594Z,27.83
2018-08-19T17:19:33.801Z,27.76
2018-08-19T17:22:10.713Z,27.70
2018-08-19T17:24:43.541Z,27.49
2018-08-19T17:27:25.180Z,27.33
2018-08-19T17:30:20.062Z,27.09
2018-08-19T17:33:08.417Z,26.94
2018-08-19T17:35:47.642Z,26.85
2018-08-19T17:38:37.668Z,26.76
2018-08-19T17:41:11.882Z,26.62
2018-08-19T17:43:50.189Z,26.58
2018-08-19T17:46:22.915Z,26.53
2018-08-19T17:48:56.990Z,26.43
2018-08-19T17:51:37.144Z,26.33
2018-08-19T17:54:19.640Z,26.15
2018-08-19T17:56:52.457Z,25.99
2018-08-19T17:59:25.611Z,25.91
2018-08-19T18:02:00.403Z,25.80
2018-08-19T18:04:41.079Z,25.68
2018-08-19T18:07:19.527Z,25.55
2018-08-19T18:10:12.673Z,25.41
2018-08-19T18:12:45.777Z,25.28
2018-08-19T18:15:17.607Z,25.18
2018-08-19T18:18:04.615Z,25.07
2018-08-19T18:20:39.477Z,24.95
2018-08-19T18:23:18.958Z,24.88
2018-08-19T18:25:51.983Z,24.80
2018-08-19T18:28:42.170Z,24.71
2018-08-19T18:31:22.961Z,24.59
2018-08-19T18:34:02.134Z,24.45
2018-08-19T18:36:38.597Z,24.31
2018-08-19T18:39:15.681Z,24.18
2018-08-19T18:41:50.935Z,24.06
2018-08-19T18:44:24.449Z,23.96
2018-08-19T18:47:00.296Z,23.86
2018-08-19T18:49:37.745Z,23.76
2018-08-19T18:52:19.503Z,23.67
2018-08-19T18:54:55.137Z,23.57
2018-08-19T18:57:37.366Z,23.45
2018-08-19T19:00:15.163Z,23.34
2018-08-19T19:02:56.311Z,23.26
2018-08-19T19:05:43.895Z,23.16
2018-08-19T19:08:17.617Z,23.02
2018-08-19T19:10:57.638Z,22.86
2018-08-19T19:13:31.257Z,22.76
2018-08-19T19:16:03.757Z,22.68
2018-08-19T19:18:41.261Z,22.60
2018-08-19T19:21:14.940Z,22.53
2018-08-19T19:23:49.432Z,22.53
2018-08-19T19:26:29.943Z,22.51
2018-08-19T19:29:07.712Z,22.50
2018-08-19T19:31:41.543Z,22.44
2018-08-19T19:34:16.002Z,22.35
2018-08-19T19:36:52.052Z,22.24
2018-08-19T19:39:28.565Z,22.18
2018-08-19T19:42:09.436Z,22.12
2018-08-19T19:44:42.291Z,22.07
2018-08-19T19:47:17.826Z,21.99
2018-08-19T19:49:56.764Z,21.93
2018-08-19T19:52:31.826Z,21.89
2018-08-19T19:55:07.075Z,21.80
2018-08-19T19:57:39.846Z,21.72
2018-08-19T20:00:22.980Z,21.64
2018-08-19T20:02:56.100Z,21.58
2018-08-19T20:05:34.290Z,21.47
2018-08-19T20:08:09.312Z,21.37
2018-08-19T20:10:51.838Z,21.29
2018-08-19T20:13:24.868Z,21.29
2018-08-19T20:16:02.089Z,21.30
2018-08-19T20:18:37.930Z,21.31
2018-08-19T20:21:29.629Z,21.34
2018-08-19T20:24:04.836Z,21.33
2018-08-19T20:26:43.931Z,21.26
2018-08-19T20:29:19.896Z,21.18
2018-08-19T20:31:57.772Z,21.14
2018-08-19T20:34:37.436Z,21.11
2018-08-19T20:37:19.456Z,21.03
2018-08-19T20:39:52.315Z,20.94
2018-08-19T20:42:34.024Z,20.88
2018-08-19T20:45:17.356Z,20.79
2018-08-19T20:47:55.384Z,20.70
2018-08-19T20:50:28.632Z,20.59
2018-08-19T20:53:05.955Z,20.44
2018-08-19T20:55:41.464Z,20.31
2018-08-19T20:58:15.633Z,20.26
2018-08-19T21:00:51.055Z,20.30
2018-08-19T21:03:26.863Z,20.40
2018-08-19T21:06:00.308Z,20.51
2018-08-19T21:08:34.153Z,20.52
2018-08-19T21:11:08.704Z,20.44
2018-08-19T21:13:41.148Z,20.42
2018-08-19T21:16:15.229Z,20.36
2018-08-19T21:18:48.655Z,20.32
2018-08-19T21:21:23.734Z,20.28
2018-08-19T21:24:00.846Z,20.27
2018-08-19T21:26:35.258Z,20.21
2018-08-19T21:29:11.385Z,20.12
2018-08-19T21:31:45.594Z,20.10
2018-08-19T21:34:20.282Z,20.12
2018-08-19T21:36:53.497Z,20.13
2018-08-19T21:39:28.744Z,20.16
2018-08-19T21:42:04.178Z,20.22
2018-08-19T21:44:37.784Z,20.27
2018-08-19T21:47:11.164Z,20.34
2018-08-19T21:49:56.092Z,20.40
2018-08-19T21:52:33.493Z,20.39
2018-08-19T21:55:08.278Z,20.32
2018-08-19T21:57:42.181Z,20.20
2018-08-19T22:00:20.761Z,20.13
2018-08-19T22:03:00.437Z,20.15
2018-08-19T22:05:35.042Z,20.24
2018-08-19T22:08:10.342Z,20.30
2018-08-19T22:10:59.560Z,20.35
2018-08-19T22:13:34.630Z,20.39
2018-08-19T22:16:08.034Z,20.43
2018-08-19T22:18:49.466Z,20.48
2018-08-19T22:21:25.380Z,20.55
2018-08-19T22:23:59.739Z,20.60
2018-08-19T22:26:38.399Z,20.63
2018-08-19T22:29:19.722Z,20.66
2018-08-19T22:31:55.140Z,20.69
2018-08-19T22:34:37.132Z,20.70
2018-08-19T22:37:11.452Z,20.68
2018-08-19T22:39:48.929Z,20.69
2018-08-19T22:42:23.853Z,20.69
2018-08-19T22:44:56.590Z,20.70
2018-08-19T22:47:49.862Z,20.68
2018-08-19T22:50:30.696Z,20.63
2018-08-19T22:53:04.500Z,20.73
2018-08-19T22:55:37.345Z,20.71
2018-08-19T22:58:13.724Z,20.67
2018-08-19T23:00:48.299Z,20.68
2018-08-19T23:03:22.849Z,20.71
2018-08-19T23:06:01.784Z,20.77
2018-08-19T23:08:35.292Z,20.85
2018-08-19T23:11:11.695Z,20.92
2018-08-19T23:14:08.213Z,21.00
2018-08-19T23:16:40.814Z,21.04
2018-08-19T23:19:21.156Z,21.07
2018-08-19T23:21:55.720Z,21.10
2018-08-19T23:24:29.609Z,21.12
2018-08-19T23:27:04.716Z,21.15
2018-08-19T23:29:39.516Z,21.17
2018-08-19T23:32:12.163Z,21.19
2018-08-19T23:34:44.972Z,21.19
2018-08-19T23:37:17.532Z,21.27
2018-08-19T23:39:50.411Z,21.27
2018-08-19T23:42:25.019Z,21.25
2018-08-19T23:44:58.009Z,21.26
2018-08-19T23:47:30.592Z,21.26
2018-08-19T23:50:05.460Z,21.25
2018-08-19T23:52:37.720Z,21.25
2018-08-19T23:55:10.311Z,21.24
2018-08-19T23:57:45.459Z,21.23
